createdAt,value
2018-08-08T00:01:49.144Z,12.27
2018-08-08T00:04:18.628Z,11.87
2018-08-08T00:06:48.008Z,11.83
2018-08-08T00:09:17.333Z,12.37
2018-08-08T00:11:46.788Z,11.00
2018-08-08T00:14:16.161Z,12.00
2018-08-08T00:16:45.752Z,12.27
2018-08-08T00:19:15.192Z,11.23
2018-08-08T00:21:44.622Z,11.53
2018-08-08T00:24:13.953Z,11.30
2018-08-08T00:26:43.405Z,11.97
2018-08-08T00:29:12.809Z,11.73
2018-08-08T00:31:42.245Z,11.33
2018-08-08T00:34:11.730Z,11.70
2018-08-08T00:36:41.177Z,11.27
2018-08-08T00:39:11.137Z,12.40
2018-08-08T00:41:40.587Z,10.47
2018-08-08T00:44:10.437Z,9.53
2018-08-08T00:46:39.895Z,10.60
2018-08-08T00:49:09.267Z,10.30
2018-08-08T00:51:38.681Z,10.17
2018-08-08T00:54:08.103Z,13.23
2018-08-08T00:56:37.577Z,12.90
2018-08-08T00:59:07.104Z,11.23
2018-08-08T01:01:36.513Z,9.57
2018-08-08T01:04:06.129Z,10.83
2018-08-08T01:06:35.614Z,11.20
2018-08-08T01:09:06.996Z,11.97
2018-08-08T01:11:39.953Z,11.63
2018-08-08T01:14:09.362Z,11.90
2018-08-08T01:16:38.801Z,12.20
2018-08-08T01:19:08.265Z,11.83
2018-08-08T01:21:37.726Z,11.27
2018-08-08T01:24:07.267Z,10.67
2018-08-08T01:26:36.679Z,9.77
2018-08-08T01:29:06.625Z,11.50
2018-08-08T01:31:36.013Z,10.70
2018-08-08T01:34:05.492Z,11.53
2018-08-08T01:36:34.875Z,10.33
2018-08-08T01:39:04.692Z,10.90
2018-08-08T01:41:34.032Z,9.97
2018-08-08T01:44:03.606Z,10.10
2018-08-08T01:46:33.032Z,10.67
2018-08-08T01:49:02.520Z,10.80
2018-08-08T01:51:31.928Z,11.87
2018-08-08T01:54:01.298Z,10.83
2018-08-08T01:56:30.781Z,12.13
2018-08-08T01:59:00.371Z,10.80
2018-08-08T02:01:29.803Z,12.60
2018-08-08T02:03:59.312Z,12.13
2018-08-08T02:06:28.913Z,11.93
2018-08-08T02:08:58.495Z,10.20
2018-08-08T02:11:28.030Z,11.10
2018-08-08T02:13:57.467Z,12.47
2018-08-08T02:16:26.919Z,10.23
2018-08-08T02:18:56.320Z,10.57
2018-08-08T02:21:25.733Z,12.57
2018-08-08T02:23:55.268Z,12.10
2018-08-08T02:26:24.800Z,12.37
2018-08-08T02:28:57.877Z,14.83
2018-08-08T02:31:27.361Z,12.37
2018-08-08T02:33:56.830Z,11.57
2018-08-08T02:36:26.321Z,11.00
2018-08-08T02:38:55.691Z,10.60
2018-08-08T02:41:25.024Z,11.13
2018-08-08T02:43:54.428Z,11.27
2018-08-08T02:46:23.814Z,10.07
2018-08-08T02:48:53.341Z,12.17
2018-08-08T02:51:22.769Z,10.73
2018-08-08T02:53:52.076Z,11.30
2018-08-08T02:56:21.437Z,10.67
2018-08-08T02:58:50.860Z,11.20
2018-08-08T03:01:20.300Z,12.67
2018-08-08T03:03:49.679Z,10.73
2018-08-08T03:06:19.082Z,11.60
2018-08-08T03:08:48.556Z,12.40
2018-08-08T03:11:18.017Z,12.40
2018-08-08T03:13:47.378Z,12.10
2018-08-08T03:16:16.673Z,13.13
2018-08-08T03:18:46.025Z,13.13
2018-08-08T03:21:15.419Z,13.07
2018-08-08T03:23:44.909Z,13.27
2018-08-08T03:26:14.323Z,11.73
2018-08-08T03:28:43.811Z,13.13
2018-08-08T03:31:13.194Z,12.57
2018-08-08T03:33:42.548Z,12.07
2018-08-08T03:36:11.992Z,12.40
2018-08-08T03:38:41.484Z,13.47
2018-08-08T03:41:10.937Z,13.13
2018-08-08T03:43:40.417Z,11.73
2018-08-08T03:46:09.848Z,11.77
2018-08-08T03:48:39.294Z,11.63
2018-08-08T03:51:08.775Z,13.10
2018-08-08T03:53:38.261Z,13.20
2018-08-08T03:56:07.743Z,12.10
2018-08-08T03:58:37.189Z,9.73
2018-08-08T04:01:06.707Z,12.07
2018-08-08T04:03:36.094Z,11.80
2018-08-08T04:06:05.592Z,12.33
2018-08-08T04:08:35.098Z,12.20
2018-08-08T04:11:04.479Z,11.67
2018-08-08T04:13:33.908Z,12.07
2018-08-08T04:16:03.307Z,10.00
2018-08-08T04:18:32.756Z,10.00
2018-08-08T04:21:02.150Z,9.47
2018-08-08T04:23:31.763Z,9.47
2018-08-08T04:26:01.274Z,9.80
2018-08-08T04:28:30.726Z,10.03
2018-08-08T04:31:00.134Z,9.17
2018-08-08T04:33:29.717Z,10.87
2018-08-08T04:35:59.160Z,10.17
2018-08-08T04:38:28.589Z,8.93
2018-08-08T04:40:58.133Z,9.90
2018-08-08T04:43:27.645Z,10.33
2018-08-08T04:45:57.205Z,10.47
2018-08-08T04:48:26.608Z,9.73
2018-08-08T04:50:56.146Z,12.30
2018-08-08T04:53:25.592Z,10.43
2018-08-08T04:55:54.980Z,12.00
2018-08-08T04:58:24.273Z,11.00
2018-08-08T05:00:53.761Z,10.23
2018-08-08T05:03:23.225Z,10.83
2018-08-08T05:05:52.718Z,10.00
2018-08-08T05:08:22.152Z,11.07
2018-08-08T05:10:51.633Z,12.70
2018-08-08T05:13:21.061Z,11.90
2018-08-08T05:15:50.448Z,9.67
2018-08-08T05:18:19.872Z,10.17
2018-08-08T05:20:49.320Z,11.50
2018-08-08T05:23:18.756Z,12.17
2018-08-08T05:25:48.201Z,10.47
2018-08-08T05:28:17.650Z,11.63
2018-08-08T05:30:47.127Z,10.33
2018-08-08T05:33:16.532Z,10.83
2018-08-08T05:35:46.132Z,10.83
2018-08-08T05:38:15.880Z,9.73
2018-08-08T05:40:45.374Z,10.33
2018-08-08T05:43:14.940Z,9.60
2018-08-08T05:45:44.451Z,10.30
2018-08-08T05:54:04.701Z,12.90
2018-08-08T05:56:34.096Z,12.10
2018-08-08T05:59:03.587Z,12.03
2018-08-08T06:01:33.068Z,11.70
2018-08-08T06:04:02.488Z,11.10
2018-08-08T06:06:32.549Z,10.47
2018-08-08T06:09:02.810Z,9.67
2018-08-08T06:11:32.341Z,10.97
2018-08-08T06:14:01.866Z,11.10
2018-08-08T06:16:31.294Z,11.47
2018-08-08T06:19:00.717Z,11.17
2018-08-08T06:21:30.200Z,10.07
2018-08-08T06:23:59.724Z,12.07
2018-08-08T06:26:29.253Z,11.67
2018-08-08T06:28:58.700Z,12.13
2018-08-08T06:31:28.209Z,11.63
2018-08-08T06:33:57.659Z,10.90
2018-08-08T06:36:27.211Z,10.53
2018-08-08T06:38:56.701Z,9.83
2018-08-08T06:41:26.215Z,9.27
2018-08-08T06:43:55.869Z,10.60
2018-08-08T06:46:25.324Z,10.13
2018-08-08T06:48:54.885Z,10.80
2018-08-08T06:51:24.304Z,10.63
2018-08-08T06:53:53.792Z,10.33
2018-08-08T06:56:40.749Z,9.83
2018-08-08T06:59:10.227Z,9.87
2018-08-08T07:01:39.825Z,9.53
2018-08-08T07:04:09.212Z,9.97
2018-08-08T07:06:38.527Z,9.77
2018-08-08T07:09:10.485Z,9.43
2018-08-08T07:11:40.280Z,8.97
2018-08-08T07:14:09.801Z,7.57
2018-08-08T07:16:39.124Z,7.40
2018-08-08T07:19:08.624Z,7.47
2018-08-08T07:21:37.940Z,7.90
2018-08-08T07:24:07.347Z,6.73
2018-08-08T07:26:36.819Z,7.17
2018-08-08T07:29:06.300Z,6.60
2018-08-08T07:31:36.076Z,7.13
2018-08-08T07:34:05.582Z,8.10
2018-08-08T07:36:35.010Z,5.37
2018-08-08T07:39:06.612Z,6.90
2018-08-08T07:41:36.301Z,6.13
2018-08-08T07:44:06.033Z,6.40
2018-08-08T07:46:35.462Z,6.43
2018-08-08T07:49:04.951Z,6.37
2018-08-08T07:51:34.245Z,6.60
2018-08-08T07:54:03.824Z,6.43
2018-08-08T07:56:33.521Z,6.50
2018-08-08T07:59:03.140Z,6.33
2018-08-08T08:01:32.692Z,7.00
2018-08-08T08:04:02.316Z,6.40
2018-08-08T08:06:31.670Z,5.60
2018-08-08T08:09:01.008Z,6.17
2018-08-08T08:11:30.534Z,5.97
2018-08-08T08:14:00.035Z,5.83
2018-08-08T08:16:29.416Z,6.13
2018-08-08T08:18:58.881Z,6.07
2018-08-08T08:21:28.264Z,5.83
2018-08-08T08:23:57.837Z,6.07
2018-08-08T08:26:27.479Z,5.73
2018-08-08T08:29:06.683Z,5.87
2018-08-08T08:31:36.136Z,5.33
2018-08-08T08:34:05.548Z,5.97
2018-08-08T08:36:35.017Z,5.87
2018-08-08T08:39:06.005Z,5.27
2018-08-08T08:41:35.320Z,5.57
2018-08-08T08:44:04.597Z,4.97
2018-08-08T08:46:34.024Z,5.50
2018-08-08T08:49:03.415Z,5.03
2018-08-08T08:51:32.950Z,5.50
2018-08-08T08:54:25.789Z,6.03
2018-08-08T08:56:55.236Z,6.07
2018-08-08T08:59:24.698Z,6.70
2018-08-08T09:01:54.121Z,5.70
2018-08-08T09:04:23.520Z,4.93
2018-08-08T09:06:52.259Z,5.20
2018-08-08T09:09:21.712Z,5.83
2018-08-08T09:11:51.202Z,5.27
2018-08-08T09:14:20.632Z,5.33
2018-08-08T09:16:50.134Z,4.30
2018-08-08T09:19:19.536Z,5.27
2018-08-08T09:21:48.889Z,5.70
2018-08-08T09:24:18.414Z,5.90
2018-08-08T09:26:47.897Z,6.23
2018-08-08T09:29:17.272Z,5.83
2018-08-08T09:31:46.994Z,5.07
2018-08-08T09:34:16.424Z,4.40
2018-08-08T09:36:45.773Z,4.50
2018-08-08T09:39:15.220Z,4.80
2018-08-08T09:41:44.609Z,4.00
2018-08-08T09:44:14.017Z,4.27
2018-08-08T09:46:43.386Z,4.17
2018-08-08T09:49:12.688Z,4.00
2018-08-08T09:51:42.185Z,4.60
2018-08-08T09:54:27.707Z,4.13
2018-08-08T09:56:57.060Z,4.27
2018-08-08T09:59:26.392Z,4.93
2018-08-08T10:02:00.828Z,4.50
2018-08-08T10:04:35.612Z,4.30
2018-08-08T10:07:06.543Z,4.45
2018-08-08T10:09:36.408Z,4.75
2018-08-08T10:12:05.917Z,4.62
2018-08-08T10:14:35.398Z,4.65
2018-08-08T10:17:05.075Z,4.97
2018-08-08T10:19:34.514Z,5.03
2018-08-08T10:22:06.771Z,4.50
2018-08-08T10:24:36.234Z,4.15
2018-08-08T10:27:16.666Z,4.10
2018-08-08T10:29:46.108Z,4.17
2018-08-08T10:32:15.542Z,4.05
2018-08-08T10:34:44.944Z,3.47
2018-08-08T10:37:14.388Z,4.00
2018-08-08T10:39:43.930Z,4.15
2018-08-08T10:42:13.330Z,3.45
2018-08-08T10:44:42.723Z,3.27
2018-08-08T10:47:12.072Z,3.37
2018-08-08T10:49:41.933Z,2.87
2018-08-08T10:52:11.373Z,3.58
2018-08-08T10:54:40.777Z,4.00
2018-08-08T10:57:10.283Z,2.87
2018-08-08T10:59:39.807Z,3.33
2018-08-08T11:02:09.275Z,3.60
2018-08-08T11:04:38.872Z,3.45
2018-08-08T11:07:08.444Z,3.22
2018-08-08T11:09:37.845Z,4.17
2018-08-08T11:12:07.350Z,4.28
2018-08-08T11:14:38.875Z,4.25
2018-08-08T11:17:08.488Z,3.72
2018-08-08T11:19:37.878Z,3.52
2018-08-08T11:22:07.432Z,3.40
2018-08-08T11:24:36.845Z,4.05
2018-08-08T11:27:06.441Z,2.87
2018-08-08T11:29:35.902Z,3.87
2018-08-08T11:32:05.462Z,3.58
2018-08-08T11:34:34.945Z,3.87
2018-08-08T11:37:04.874Z,3.75
2018-08-08T11:39:34.524Z,3.55
2018-08-08T11:42:04.094Z,3.60
2018-08-08T11:44:33.540Z,3.33
2018-08-08T11:47:03.021Z,3.85
2018-08-08T11:49:32.534Z,4.00
2018-08-08T11:52:02.080Z,3.67
2018-08-08T11:54:31.227Z,3.98
2018-08-08T11:57:04.192Z,4.28
2018-08-08T11:59:33.393Z,3.67
2018-08-08T12:02:02.535Z,3.62
2018-08-08T12:04:31.686Z,3.70
2018-08-08T12:07:00.830Z,3.60
2018-08-08T12:09:30.037Z,4.22
2018-08-08T12:11:59.229Z,3.87
2018-08-08T12:14:28.434Z,4.42
2018-08-08T12:16:57.725Z,4.35
2018-08-08T12:19:26.850Z,3.70
2018-08-08T12:22:00.333Z,4.42
2018-08-08T12:24:29.611Z,4.17
2018-08-08T12:26:59.016Z,3.90
2018-08-08T12:29:32.776Z,3.85
2018-08-08T12:32:02.167Z,3.92
2018-08-08T12:34:31.608Z,4.12
2018-08-08T12:37:01.056Z,4.28
2018-08-08T12:39:30.459Z,4.17
2018-08-08T12:41:59.953Z,4.00
2018-08-08T12:44:29.373Z,4.25
2018-08-08T12:46:58.824Z,3.87
2018-08-08T12:49:28.122Z,4.37
2018-08-08T12:51:57.537Z,3.98
2018-08-08T12:54:26.886Z,4.05
2018-08-08T12:56:56.325Z,4.35
2018-08-08T12:59:25.757Z,4.22
2018-08-08T13:01:55.186Z,4.92
2018-08-08T13:04:25.255Z,4.05
2018-08-08T13:07:05.871Z,3.83
2018-08-08T13:09:35.401Z,3.70
2018-08-08T13:12:04.901Z,3.75
2018-08-08T13:14:34.369Z,4.03
2018-08-08T13:17:03.852Z,4.15
2018-08-08T13:19:33.264Z,3.58
2018-08-08T13:22:02.688Z,4.03
2018-08-08T13:24:32.107Z,3.92
2018-08-08T13:27:01.508Z,4.58
2018-08-08T13:29:30.963Z,4.80
2018-08-08T13:32:00.417Z,4.72
2018-08-08T13:34:29.848Z,4.67
2018-08-08T13:36:59.324Z,4.10
2018-08-08T13:39:28.778Z,4.12
2018-08-08T13:41:58.251Z,4.50
2018-08-08T13:44:27.687Z,4.70
2018-08-08T13:46:57.140Z,4.53
2018-08-08T13:49:26.569Z,4.17
2018-08-08T13:51:56.017Z,5.05
2018-08-08T13:54:25.500Z,4.95
2018-08-08T13:56:54.905Z,4.70
2018-08-08T13:59:24.355Z,4.55
2018-08-08T14:01:53.813Z,5.58
2018-08-08T14:04:23.281Z,4.92
2018-08-08T14:06:52.784Z,4.80
2018-08-08T14:09:22.188Z,5.60
2018-08-08T14:11:51.711Z,5.08
2018-08-08T14:14:21.165Z,4.92
2018-08-08T14:16:50.630Z,4.60
2018-08-08T14:19:20.250Z,5.62
2018-08-08T14:21:49.808Z,5.72
2018-08-08T14:24:19.205Z,5.30
2018-08-08T14:26:48.881Z,5.30
2018-08-08T14:29:18.288Z,5.50
2018-08-08T14:31:47.834Z,5.47
2018-08-08T14:34:28.841Z,5.50
2018-08-08T14:36:58.267Z,5.42
2018-08-08T14:39:27.714Z,5.78
2018-08-08T14:41:57.108Z,5.28
2018-08-08T14:44:26.774Z,5.60
2018-08-08T14:46:56.295Z,5.42
2018-08-08T14:49:25.638Z,5.85
2018-08-08T14:51:55.093Z,5.60
2018-08-08T14:54:24.698Z,5.35
2018-08-08T14:56:54.093Z,7.55
2018-08-08T14:59:34.887Z,19.10
2018-08-08T15:02:04.335Z,36.70
2018-08-08T15:04:33.730Z,36.90
2018-08-08T15:07:03.198Z,7.15
2018-08-08T15:09:32.668Z,8.98
2018-08-08T15:12:02.078Z,7.25
2018-08-08T15:14:31.527Z,5.45
2018-08-08T15:17:00.960Z,6.28
2018-08-08T15:19:30.394Z,5.45
2018-08-08T15:22:05.228Z,5.92
2018-08-08T15:24:34.911Z,5.08
2018-08-08T15:27:04.317Z,5.55
2018-08-08T15:29:33.776Z,5.90
2018-08-08T15:32:03.168Z,5.42
2018-08-08T15:37:28.162Z,5.45
2018-08-08T15:39:57.552Z,5.65
2018-08-08T15:42:27.050Z,5.80
2018-08-08T15:44:58.113Z,4.60
2018-08-08T15:47:27.580Z,5.12
2018-08-08T15:49:57.080Z,5.28
2018-08-08T15:52:26.706Z,4.95
2018-08-08T15:55:09.958Z,4.80
2018-08-08T15:57:39.558Z,5.53
2018-08-08T16:00:10.895Z,5.90
2018-08-08T16:02:41.153Z,5.17
2018-08-08T16:05:10.593Z,5.25
2018-08-08T16:07:58.812Z,5.70
2018-08-08T16:10:28.632Z,4.78
2018-08-08T16:12:58.061Z,5.53
2018-08-08T16:15:27.486Z,5.22
2018-08-08T16:17:57.009Z,5.85
2018-08-08T16:20:26.492Z,6.37
2018-08-08T16:22:56.052Z,20.25
2018-08-08T16:25:25.567Z,6.25
2018-08-08T16:27:54.951Z,5.55
2018-08-08T16:30:24.480Z,6.35
2018-08-08T16:32:54.061Z,5.90
2018-08-08T16:35:23.573Z,6.12
2018-08-08T16:37:52.983Z,5.58
2018-08-08T16:40:22.432Z,6.20
2018-08-08T16:42:51.841Z,5.97
2018-08-08T16:45:21.322Z,6.20
2018-08-08T16:53:37.899Z,5.50
2018-08-08T16:56:07.426Z,5.53
2018-08-08T16:58:37.009Z,5.53
2018-08-08T17:01:06.445Z,5.87
2018-08-08T17:03:35.892Z,6.08
2018-08-08T17:06:05.281Z,5.90
2018-08-08T17:08:34.192Z,6.95
2018-08-08T17:11:03.624Z,5.40
2018-08-08T17:13:33.064Z,6.25
2018-08-08T17:16:02.579Z,5.92
2018-08-08T17:18:31.968Z,5.72
2018-08-08T17:21:01.510Z,6.20
2018-08-08T17:23:31.039Z,5.75
2018-08-08T17:26:00.383Z,5.70
2018-08-08T17:28:29.864Z,5.92
2018-08-08T17:31:21.065Z,6.33
2018-08-08T17:33:50.561Z,5.62
2018-08-08T17:36:19.961Z,5.28
2018-08-08T17:38:49.508Z,5.67
2018-08-08T17:41:18.860Z,5.40
2018-08-08T17:43:48.660Z,5.72
2018-08-08T17:46:17.701Z,5.42
2018-08-08T17:48:47.016Z,4.92
2018-08-08T17:51:16.405Z,5.45
2018-08-08T17:53:45.803Z,4.87
2018-08-08T17:56:15.282Z,5.12
2018-08-08T17:58:45.481Z,6.10
2018-08-08T18:01:16.217Z,5.53
2018-08-08T18:03:45.743Z,5.83
2018-08-08T18:06:15.155Z,6.40
2018-08-08T18:08:44.691Z,6.50
2018-08-08T18:11:14.159Z,5.87
2018-08-08T18:13:43.550Z,5.85
2018-08-08T18:16:12.976Z,6.10
2018-08-08T18:18:43.012Z,5.80
2018-08-08T18:27:03.044Z,6.10
2018-08-08T18:29:32.965Z,5.70
2018-08-08T18:32:02.380Z,5.93
2018-08-08T18:34:31.882Z,6.07
2018-08-08T18:37:01.449Z,6.23
2018-08-08T18:39:31.287Z,6.50
2018-08-08T18:42:00.680Z,6.53
2018-08-08T18:44:30.041Z,6.03
2018-08-08T18:46:59.512Z,5.80
2018-08-08T18:49:29.012Z,6.40
2018-08-08T18:51:58.439Z,6.03
2018-08-08T18:54:28.017Z,6.30
2018-08-08T18:56:57.430Z,6.33
2018-08-08T18:59:26.835Z,6.20
2018-08-08T19:01:56.308Z,5.17
2018-08-08T19:04:25.699Z,6.23
2018-08-08T19:06:54.981Z,5.50
2018-08-08T19:09:32.056Z,5.47
2018-08-08T19:12:01.361Z,5.40
2018-08-08T19:14:30.663Z,5.57
2018-08-08T19:16:59.976Z,5.43
2018-08-08T19:19:29.632Z,6.33
2018-08-08T19:21:59.074Z,5.97
2018-08-08T19:24:28.427Z,6.43
2018-08-08T19:26:57.924Z,5.53
2018-08-08T19:29:27.240Z,6.10
2018-08-08T19:31:56.593Z,5.97
2018-08-08T19:34:26.126Z,6.27
2018-08-08T19:36:55.716Z,5.80
2018-08-08T19:39:29.014Z,6.43
2018-08-08T19:41:58.462Z,6.10
2018-08-08T19:44:27.858Z,6.20
2018-08-08T19:46:57.197Z,6.13
2018-08-08T19:49:26.853Z,5.60
2018-08-08T19:51:56.249Z,6.23
2018-08-08T19:54:25.541Z,4.97
2018-08-08T19:56:56.048Z,5.97
2018-08-08T19:59:31.488Z,6.40
2018-08-08T20:02:01.642Z,6.83
2018-08-08T20:04:31.956Z,6.37
2018-08-08T20:07:01.532Z,5.77
2018-08-08T20:09:30.933Z,6.27
2018-08-08T20:12:07.158Z,6.10
2018-08-08T20:14:36.903Z,6.40
2018-08-08T20:17:06.446Z,6.10
2018-08-08T20:19:36.525Z,6.23
2018-08-08T20:22:10.894Z,6.60
2018-08-08T20:24:40.294Z,6.70
2018-08-08T20:27:09.609Z,6.20
2018-08-08T20:29:39.190Z,6.60
2018-08-08T20:32:08.632Z,6.77
2018-08-08T20:34:38.042Z,5.53
2018-08-08T20:37:07.837Z,6.23
2018-08-08T20:39:52.669Z,6.53
2018-08-08T20:42:22.250Z,6.53
2018-08-08T20:44:51.719Z,6.13
2018-08-08T20:47:21.330Z,5.90
2018-08-08T20:49:50.629Z,5.80
2018-08-08T20:52:19.940Z,6.50
2018-08-08T20:54:49.208Z,6.57
2018-08-08T20:57:18.564Z,6.53
2018-08-08T20:59:47.856Z,6.03
2018-08-08T21:02:17.299Z,6.67
2018-08-08T21:04:46.666Z,6.57
2018-08-08T21:07:15.986Z,6.20
2018-08-08T21:09:45.304Z,6.37
2018-08-08T21:12:14.726Z,7.47
2018-08-08T21:14:44.142Z,7.30
2018-08-08T21:17:13.508Z,6.13
2018-08-08T21:19:42.840Z,6.50
2018-08-08T21:22:12.236Z,6.00
2018-08-08T21:24:41.628Z,7.50
2018-08-08T21:27:11.005Z,6.00
2018-08-08T21:29:40.312Z,6.83
2018-08-08T21:32:09.644Z,7.10
2018-08-08T21:34:38.976Z,7.47
2018-08-08T21:37:21.296Z,6.93
2018-08-08T21:39:50.680Z,6.97
2018-08-08T21:42:20.040Z,7.40
2018-08-08T21:44:50.041Z,7.63
2018-08-08T21:47:19.423Z,8.40
2018-08-08T21:50:00.988Z,8.00
2018-08-08T21:52:30.251Z,8.07
2018-08-08T21:55:10.260Z,7.90
2018-08-08T21:57:50.349Z,7.10
2018-08-08T22:00:30.520Z,7.23
2018-08-08T22:03:10.889Z,7.70
2018-08-08T22:05:51.181Z,8.37
2018-08-08T22:08:31.362Z,8.77
2018-08-08T22:11:17.521Z,8.13
2018-08-08T22:14:07.124Z,8.30
2018-08-08T22:16:47.535Z,8.17
2018-08-08T22:19:45.624Z,8.07
2018-08-08T22:22:15.047Z,8.57
2018-08-08T22:24:44.484Z,7.47
2018-08-08T22:27:13.875Z,8.20
2018-08-08T22:29:48.174Z,7.63
2018-08-08T22:32:17.565Z,7.33
2018-08-08T22:34:46.983Z,7.63
2018-08-08T22:37:16.382Z,7.07
2018-08-08T22:39:45.733Z,7.70
2018-08-08T22:42:15.131Z,7.97
2018-08-08T22:44:44.538Z,8.00
2018-08-08T22:47:13.882Z,8.40
2018-08-08T22:49:43.231Z,9.10
2018-08-08T22:52:12.672Z,8.20
2018-08-08T22:54:41.964Z,9.40
2018-08-08T22:57:11.403Z,8.07
2018-08-08T22:59:40.769Z,8.67
2018-08-08T23:02:10.116Z,8.40
2018-08-08T23:04:39.451Z,8.93
2018-08-08T23:07:08.743Z,8.67
2018-08-08T23:09:38.102Z,8.93
2018-08-08T23:12:07.574Z,8.70
2018-08-08T23:14:36.868Z,8.17
2018-08-08T23:17:06.212Z,8.47
2018-08-08T23:19:35.573Z,8.90
2018-08-08T23:22:05.208Z,7.40
2018-08-08T23:24:34.642Z,8.23
2018-08-08T23:27:03.929Z,8.73
2018-08-08T23:29:33.364Z,8.70
2018-08-08T23:32:02.661Z,8.93
2018-08-08T23:34:32.088Z,9.07
2018-08-08T23:37:01.494Z,8.43
2018-08-08T23:39:30.809Z,8.70
2018-08-08T23:42:00.173Z,8.33
2018-08-08T23:44:29.509Z,9.53
2018-08-08T23:46:58.909Z,8.33
2018-08-08T23:49:28.319Z,8.00
2018-08-08T23:51:57.648Z,8.50
2018-08-08T23:54:26.973Z,9.27
2018-08-08T23:56:56.333Z,9.10
2018-08-08T23:59:25.766Z,9.93
